sensor_id;sensor_type;location;lat;lon;timestamp;P1;durP1;ratioP1;P2;durP2;ratioP2
52438;SDS011;73188;52.948;6.012;2024-02-15T00:00:12;923.08;;;324.65;;
52438;SDS011;73188;52.948;6.012;2024-02-15T00:10:41;938.17;;;312.33;;
52438;SDS011;73188;52.948;6.012;2024-02-15T00:21:07;951.63;;;326.85;;
52438;SDS011;73188;52.948;6.012;2024-02-15T00:31:33;939.53;;;314.55;;
52438;SDS011;73188;52.948;6.012;2024-02-15T00:42:00;964.58;;;341.15;;
52438;SDS011;73188;52.948;6.012;2024-02-15T00:52:26;948.10;;;321.27;;
52438;SDS011;73188;52.948;6.012;2024-02-15T01:02:55;956.00;;;347.17;;
52438;SDS011;73188;52.948;6.012;2024-02-15T01:13:21;967.20;;;320.70;;
52438;SDS011;73188;52.948;6.012;2024-02-15T01:23:46;959.58;;;343.23;;
52438;SDS011;73188;52.948;6.012;2024-02-15T01:34:12;962.67;;;334.77;;
52438;SDS011;73188;52.948;6.012;2024-02-15T01:44:38;956.22;;;322.90;;
52438;SDS011;73188;52.948;6.012;2024-02-15T01:55:05;945.00;;;325.80;;
52438;SDS011;73188;52.948;6.012;2024-02-15T02:05:33;928.53;;;303.02;;
52438;SDS011;73188;52.948;6.012;2024-02-15T02:15:59;938.92;;;336.80;;
52438;SDS011;73188;52.948;6.012;2024-02-15T02:26:25;902.15;;;290.90;;
52438;SDS011;73188;52.948;6.012;2024-02-15T02:36:51;937.55;;;337.77;;
52438;SDS011;73188;52.948;6.012;2024-02-15T02:47:17;953.97;;;332.92;;
52438;SDS011;73188;52.948;6.012;2024-02-15T02:57:42;904.45;;;304.40;;
52438;SDS011;73188;52.948;6.012;2024-02-15T03:08:08;909.65;;;301.23;;
52438;SDS011;73188;52.948;6.012;2024-02-15T03:18:34;911.00;;;308.95;;
52438;SDS011;73188;52.948;6.012;2024-02-15T03:29:00;913.75;;;325.30;;
52438;SDS011;73188;52.948;6.012;2024-02-15T03:39:27;918.50;;;301.30;;
52438;SDS011;73188;52.948;6.012;2024-02-15T03:49:53;906.30;;;317.02;;
52438;SDS011;73188;52.948;6.012;2024-02-15T04:00:19;914.00;;;327.77;;
52438;SDS011;73188;52.948;6.012;2024-02-15T04:10:45;901.33;;;306.90;;
52438;SDS011;73188;52.948;6.012;2024-02-15T04:21:11;910.50;;;304.02;;
52438;SDS011;73188;52.948;6.012;2024-02-15T04:31:37;918.75;;;324.02;;
52438;SDS011;73188;52.948;6.012;2024-02-15T04:42:04;954.95;;;331.10;;
52438;SDS011;73188;52.948;6.012;2024-02-15T04:52:32;969.33;;;312.17;;
52438;SDS011;73188;52.948;6.012;2024-02-15T05:02:58;954.28;;;319.73;;
52438;SDS011;73188;52.948;6.012;2024-02-15T05:13:24;943.17;;;323.63;;
52438;SDS011;73188;52.948;6.012;2024-02-15T05:23:50;956.67;;;338.13;;
52438;SDS011;73188;52.948;6.012;2024-02-15T05:34:17;967.80;;;334.83;;
52438;SDS011;73188;52.948;6.012;2024-02-15T05:44:43;985.70;;;346.50;;
52438;SDS011;73188;52.948;6.012;2024-02-15T05:55:09;977.85;;;337.15;;
52438;SDS011;73188;52.948;6.012;2024-02-15T06:05:35;956.25;;;324.15;;
52438;SDS011;73188;52.948;6.012;2024-02-15T06:16:01;951.30;;;325.33;;
52438;SDS011;73188;52.948;6.012;2024-02-15T06:26:26;952.17;;;310.35;;
52438;SDS011;73188;52.948;6.012;2024-02-15T06:36:54;933.50;;;323.23;;
52438;SDS011;73188;52.948;6.012;2024-02-15T06:47:43;962.88;;;330.77;;
52438;SDS011;73188;52.948;6.012;2024-02-15T06:58:09;973.22;;;335.00;;
52438;SDS011;73188;52.948;6.012;2024-02-15T07:08:35;979.97;;;343.50;;
52438;SDS011;73188;52.948;6.012;2024-02-15T07:19:01;987.40;;;333.58;;
52438;SDS011;73188;52.948;6.012;2024-02-15T07:29:28;981.70;;;324.25;;
52438;SDS011;73188;52.948;6.012;2024-02-15T07:39:56;985.88;;;338.77;;
52438;SDS011;73188;52.948;6.012;2024-02-15T07:50:22;973.88;;;323.73;;
52438;SDS011;73188;52.948;6.012;2024-02-15T08:00:48;996.25;;;341.85;;
52438;SDS011;73188;52.948;6.012;2024-02-15T08:11:14;1024.78;;;350.58;;
52438;SDS011;73188;52.948;6.012;2024-02-15T08:21:40;1023.42;;;334.23;;
52438;SDS011;73188;52.948;6.012;2024-02-15T08:32:07;1019.53;;;360.02;;
52438;SDS011;73188;52.948;6.012;2024-02-15T08:42:33;1007.05;;;333.02;;
52438;SDS011;73188;52.948;6.012;2024-02-15T08:52:59;1009.25;;;350.77;;
52438;SDS011;73188;52.948;6.012;2024-02-15T09:03:24;1004.53;;;341.67;;
52438;SDS011;73188;52.948;6.012;2024-02-15T09:13:50;1008.15;;;349.63;;
52438;SDS011;73188;52.948;6.012;2024-02-15T09:24:16;1000.63;;;328.45;;
52438;SDS011;73188;52.948;6.012;2024-02-15T09:34:42;989.35;;;317.38;;
52438;SDS011;73188;52.948;6.012;2024-02-15T09:45:08;978.95;;;318.73;;
52438;SDS011;73188;52.948;6.012;2024-02-15T09:55:41;989.45;;;334.70;;
52438;SDS011;73188;52.948;6.012;2024-02-15T10:06:08;996.63;;;334.85;;
52438;SDS011;73188;52.948;6.012;2024-02-15T10:16:34;968.95;;;334.23;;
52438;SDS011;73188;52.948;6.012;2024-02-15T10:27:01;964.05;;;328.20;;
52438;SDS011;73188;52.948;6.012;2024-02-15T10:37:35;954.22;;;312.38;;
52438;SDS011;73188;52.948;6.012;2024-02-15T10:48:01;958.28;;;318.35;;
52438;SDS011;73188;52.948;6.012;2024-02-15T10:58:31;961.20;;;315.88;;
52438;SDS011;73188;52.948;6.012;2024-02-15T11:09:00;975.40;;;319.33;;
52438;SDS011;73188;52.948;6.012;2024-02-15T11:30:04;955.13;;;311.10;;
52438;SDS011;73188;52.948;6.012;2024-02-15T11:51:09;959.55;;;311.98;;
52438;SDS011;73188;52.948;6.012;2024-02-15T12:01:36;970.20;;;320.88;;
52438;SDS011;73188;52.948;6.012;2024-02-15T12:12:22;958.60;;;332.23;;
52438;SDS011;73188;52.948;6.012;2024-02-15T12:23:06;942.85;;;322.75;;
52438;SDS011;73188;52.948;6.012;2024-02-15T12:33:32;922.63;;;305.33;;
52438;SDS011;73188;52.948;6.012;2024-02-15T12:43:58;929.35;;;299.45;;
52438;SDS011;73188;52.948;6.012;2024-02-15T12:54:24;944.70;;;313.92;;
52438;SDS011;73188;52.948;6.012;2024-02-15T13:04:50;947.42;;;313.25;;
52438;SDS011;73188;52.948;6.012;2024-02-15T13:15:17;996.08;;;338.83;;
52438;SDS011;73188;52.948;6.012;2024-02-15T13:25:44;1000.35;;;340.63;;
52438;SDS011;73188;52.948;6.012;2024-02-15T13:36:10;1019.65;;;346.13;;
52438;SDS011;73188;52.948;6.012;2024-02-15T13:46:38;1008.47;;;352.58;;
52438;SDS011;73188;52.948;6.012;2024-02-15T13:57:04;996.13;;;348.95;;
52438;SDS011;73188;52.948;6.012;2024-02-15T14:07:31;983.80;;;327.95;;
52438;SDS011;73188;52.948;6.012;2024-02-15T14:17:57;965.30;;;310.48;;
52438;SDS011;73188;52.948;6.012;2024-02-15T14:28:23;1011.65;;;355.17;;
52438;SDS011;73188;52.948;6.012;2024-02-15T14:38:49;1001.75;;;335.95;;
52438;SDS011;73188;52.948;6.012;2024-02-15T14:49:16;1003.83;;;338.35;;
52438;SDS011;73188;52.948;6.012;2024-02-15T14:59:43;989.88;;;348.65;;
52438;SDS011;73188;52.948;6.012;2024-02-15T15:10:10;980.50;;;345.88;;
52438;SDS011;73188;52.948;6.012;2024-02-15T15:20:55;1008.55;;;337.02;;
52438;SDS011;73188;52.948;6.012;2024-02-15T15:31:20;1010.95;;;319.73;;
52438;SDS011;73188;52.948;6.012;2024-02-15T15:41:46;1018.22;;;350.77;;
52438;SDS011;73188;52.948;6.012;2024-02-15T15:52:13;1032.68;;;358.95;;
52438;SDS011;73188;52.948;6.012;2024-02-15T16:02:39;1026.20;;;351.33;;
52438;SDS011;73188;52.948;6.012;2024-02-15T16:13:06;978.30;;;320.83;;
52438;SDS011;73188;52.948;6.012;2024-02-15T16:23:32;972.92;;;302.02;;
52438;SDS011;73188;52.948;6.012;2024-02-15T16:33:58;975.50;;;332.30;;
52438;SDS011;73188;52.948;6.012;2024-02-15T16:44:24;949.22;;;318.15;;
52438;SDS011;73188;52.948;6.012;2024-02-15T16:54:50;942.45;;;306.10;;
52438;SDS011;73188;52.948;6.012;2024-02-15T17:05:16;973.33;;;319.17;;
52438;SDS011;73188;52.948;6.012;2024-02-15T17:15:42;974.03;;;342.92;;
52438;SDS011;73188;52.948;6.012;2024-02-15T17:26:08;974.00;;;323.20;;
52438;SDS011;73188;52.948;6.012;2024-02-15T17:36:37;981.35;;;348.92;;
52438;SDS011;73188;52.948;6.012;2024-02-15T17:47:04;1004.42;;;354.95;;
52438;SDS011;73188;52.948;6.012;2024-02-15T17:57:32;972.78;;;324.25;;
52438;SDS011;73188;52.948;6.012;2024-02-15T18:07:58;959.92;;;330.70;;
52438;SDS011;73188;52.948;6.012;2024-02-15T18:18:24;977.80;;;322.85;;
52438;SDS011;73188;52.948;6.012;2024-02-15T18:28:50;940.88;;;316.02;;
52438;SDS011;73188;52.948;6.012;2024-02-15T18:39:17;954.42;;;317.27;;
52438;SDS011;73188;52.948;6.012;2024-02-15T18:49:43;937.80;;;306.42;;
52438;SDS011;73188;52.948;6.012;2024-02-15T19:00:12;936.42;;;311.27;;
52438;SDS011;73188;52.948;6.012;2024-02-15T19:10:39;952.35;;;321.02;;
52438;SDS011;73188;52.948;6.012;2024-02-15T19:21:05;954.28;;;311.15;;
52438;SDS011;73188;52.948;6.012;2024-02-15T19:31:33;967.40;;;331.80;;
52438;SDS011;73188;52.948;6.012;2024-02-15T19:42:01;918.85;;;297.48;;
52438;SDS011;73188;52.948;6.012;2024-02-15T19:52:29;924.85;;;316.70;;
52438;SDS011;73188;52.948;6.012;2024-02-15T20:02:54;923.47;;;304.92;;
52438;SDS011;73188;52.948;6.012;2024-02-15T20:13:20;923.03;;;302.13;;
52438;SDS011;73188;52.948;6.012;2024-02-15T20:23:49;933.72;;;327.20;;
52438;SDS011;73188;52.948;6.012;2024-02-15T20:34:16;917.20;;;297.38;;
52438;SDS011;73188;52.948;6.012;2024-02-15T20:44:41;947.28;;;329.13;;
52438;SDS011;73188;52.948;6.012;2024-02-15T20:55:08;900.88;;;294.00;;
52438;SDS011;73188;52.948;6.012;2024-02-15T21:05:35;898.47;;;296.33;;
52438;SDS011;73188;52.948;6.012;2024-02-15T21:16:02;917.15;;;315.95;;
52438;SDS011;73188;52.948;6.012;2024-02-15T21:26:29;915.65;;;312.73;;
52438;SDS011;73188;52.948;6.012;2024-02-15T21:36:55;930.10;;;322.40;;
52438;SDS011;73188;52.948;6.012;2024-02-15T21:47:21;916.83;;;305.52;;
52438;SDS011;73188;52.948;6.012;2024-02-15T21:57:47;885.35;;;286.83;;
52438;SDS011;73188;52.948;6.012;2024-02-15T22:08:13;903.83;;;309.17;;
52438;SDS011;73188;52.948;6.012;2024-02-15T22:18:39;885.85;;;287.95;;
52438;SDS011;73188;52.948;6.012;2024-02-15T22:29:05;890.00;;;302.00;;
52438;SDS011;73188;52.948;6.012;2024-02-15T22:39:31;899.25;;;305.27;;
52438;SDS011;73188;52.948;6.012;2024-02-15T22:49:56;890.53;;;305.02;;
52438;SDS011;73188;52.948;6.012;2024-02-15T23:00:22;901.35;;;308.85;;
52438;SDS011;73188;52.948;6.012;2024-02-15T23:10:48;896.20;;;292.17;;
52438;SDS011;73188;52.948;6.012;2024-02-15T23:21:14;912.13;;;312.52;;
52438;SDS011;73188;52.948;6.012;2024-02-15T23:31:41;899.33;;;311.30;;
52438;SDS011;73188;52.948;6.012;2024-02-15T23:42:07;909.25;;;316.33;;
52438;SDS011;73188;52.948;6.012;2024-02-15T23:52:32;901.00;;;291.50;;
